createdAt,value
2022-11-24T00:03:33.526Z,30.90
2022-11-24T00:08:39.313Z,37.10
2022-11-24T00:13:43.820Z,29.30
2022-11-24T00:18:49.157Z,33.20
2022-11-24T00:23:52.866Z,30.70
2022-11-24T00:28:58.599Z,31.60
2022-11-24T00:34:05.419Z,36.80
2022-11-24T00:39:16.021Z,32.50
2022-11-24T00:44:19.172Z,38.60
2022-11-24T00:49:22.168Z,29.60
2022-11-24T00:54:25.340Z,25.30
2022-11-24T00:59:28.404Z,24.20
2022-11-24T01:04:31.708Z,30.60
2022-11-24T01:09:35.135Z,25.40
2022-11-24T01:14:38.236Z,26.10
2022-11-24T01:19:41.269Z,26.20
2022-11-24T01:24:44.429Z,25.20
2022-11-24T01:29:47.632Z,24.70
2022-11-24T01:34:50.679Z,23.80
2022-11-24T01:39:53.716Z,20.30
2022-11-24T01:45:35.153Z,30.60
2022-11-24T01:50:38.306Z,25.50
2022-11-24T01:55:41.763Z,20.90
2022-11-24T02:00:46.127Z,24.70
2022-11-24T02:06:08.002Z,32.20
2022-11-24T02:11:11.408Z,31.50
2022-11-24T02:16:14.474Z,24.90
2022-11-24T02:21:18.377Z,26.10
2022-11-24T02:26:46.744Z,27.70
2022-11-24T02:31:55.580Z,25.10
2022-11-24T02:36:58.632Z,31.30
2022-11-24T02:42:08.590Z,31.00
2022-11-24T02:47:13.199Z,28.50
2022-11-24T02:52:16.618Z,29.30
2022-11-24T02:57:19.604Z,19.10
2022-11-24T03:02:23.388Z,30.50
2022-11-24T03:07:26.568Z,29.40
2022-11-24T03:12:29.631Z,35.40
2022-11-24T03:17:32.616Z,29.80
2022-11-24T03:22:37.100Z,41.40
2022-11-24T03:27:40.174Z,37.30
2022-11-24T03:32:43.245Z,33.10
2022-11-24T03:37:46.321Z,32.30
2022-11-24T03:42:49.352Z,37.30
2022-11-24T03:47:52.759Z,32.20
2022-11-24T03:52:55.933Z,29.60
2022-11-24T03:57:58.980Z,35.20
2022-11-24T04:03:02.072Z,30.60
2022-11-24T04:08:06.114Z,32.90
2022-11-24T04:13:17.631Z,26.70
2022-11-24T04:18:21.179Z,29.30
2022-11-24T04:23:24.234Z,29.60
2022-11-24T04:28:27.207Z,28.30
2022-11-24T04:33:30.222Z,33.60
2022-11-24T04:39:24.422Z,30.00
2022-11-24T04:43:56.251Z,28.60
2022-11-24T04:48:59.307Z,32.90
2022-11-24T04:54:02.302Z,27.40
2022-11-24T04:59:08.360Z,24.60
2022-11-24T05:04:14.240Z,25.90
2022-11-24T05:09:17.989Z,29.60
2022-11-24T05:14:21.087Z,30.40
2022-11-24T05:19:27.319Z,23.00
2022-11-24T05:24:33.150Z,20.10
2022-11-24T05:29:37.031Z,22.00
2022-11-24T05:34:39.951Z,26.60
2022-11-24T05:39:46.581Z,26.50
2022-11-24T05:44:49.602Z,22.90
2022-11-24T05:49:52.654Z,26.50
2022-11-24T05:54:55.468Z,25.30
2022-11-24T05:59:58.272Z,22.10
2022-11-24T06:05:01.325Z,35.10
2022-11-24T06:10:04.482Z,28.70
2022-11-24T06:15:07.718Z,36.90
2022-11-24T06:20:11.481Z,34.00
2022-11-24T06:25:14.592Z,36.10
2022-11-24T06:30:17.461Z,30.30
2022-11-24T06:35:20.244Z,30.30
2022-11-24T06:40:23.357Z,36.40
2022-11-24T06:45:26.352Z,30.40
2022-11-24T06:50:33.388Z,39.60
2022-11-24T06:55:36.751Z,55.60
2022-11-24T07:00:50.055Z,44.40
2022-11-24T07:05:59.671Z,73.10
2022-11-24T07:11:07.542Z,31.00
2022-11-24T07:16:12.021Z,23.80
2022-11-24T07:21:16.464Z,27.30
2022-11-24T07:26:20.389Z,42.60
2022-11-24T07:31:29.706Z,46.20
2022-11-24T07:36:33.980Z,25.50
2022-11-24T07:41:37.118Z,35.40
2022-11-24T07:46:40.611Z,36.80
2022-11-24T07:51:43.924Z,33.80
2022-11-24T07:56:54.062Z,31.90
2022-11-24T08:02:03.611Z,44.00
2022-11-24T08:07:13.323Z,29.00
2022-11-24T08:12:21.497Z,29.30
2022-11-24T08:17:24.522Z,40.70
2022-11-24T08:22:30.167Z,33.60
2022-11-24T08:27:33.097Z,36.10
2022-11-24T08:32:35.990Z,37.30
2022-11-24T08:37:43.015Z,27.40
2022-11-24T08:42:50.450Z,26.60
2022-11-24T08:47:54.551Z,24.00
2022-11-24T08:52:57.743Z,23.40
2022-11-24T08:58:03.080Z,21.80
2022-11-24T09:03:06.447Z,20.40
2022-11-24T09:08:09.834Z,19.20
2022-11-24T09:13:12.933Z,17.60
2022-11-24T09:18:18.036Z,21.10
2022-11-24T09:23:20.795Z,20.40
2022-11-24T09:28:23.578Z,18.40
2022-11-24T09:33:26.462Z,24.80
2022-11-24T09:38:30.926Z,23.40
2022-11-24T09:44:00.188Z,20.00
2022-11-24T09:49:08.170Z,16.40
2022-11-24T09:54:23.249Z,21.60
2022-11-24T09:59:27.754Z,24.80
2022-11-24T10:04:43.654Z,23.50
2022-11-24T10:10:07.912Z,26.40
2022-11-24T10:15:54.997Z,23.40
2022-11-24T10:21:34.933Z,23.80
2022-11-24T10:26:40.885Z,23.90
2022-11-24T10:31:45.882Z,25.70
2022-11-24T10:37:11.192Z,25.60
2022-11-24T10:42:37.335Z,25.00
2022-11-24T10:47:48.669Z,28.90
2022-11-24T10:53:19.120Z,31.20
2022-11-24T10:58:35.866Z,28.50
2022-11-24T11:04:01.772Z,21.80
2022-11-24T11:09:07.649Z,25.90
2022-11-24T11:14:13.127Z,30.50
2022-11-24T11:20:11.054Z,33.80
2022-11-24T11:25:28.826Z,28.30
2022-11-24T11:36:02.471Z,29.40
2022-11-24T11:41:07.569Z,25.00
2022-11-24T11:46:13.639Z,24.70
2022-11-24T11:57:22.726Z,26.00
2022-11-24T12:02:53.368Z,31.60
2022-11-24T12:08:19.203Z,41.70
2022-11-24T12:13:43.272Z,32.00
2022-11-24T12:18:58.206Z,33.30
2022-11-24T12:24:01.961Z,33.90
2022-11-24T12:29:26.531Z,39.60
2022-11-24T12:34:34.015Z,52.30
2022-11-24T12:39:58.625Z,67.70
2022-11-24T12:45:14.784Z,50.10
2022-11-24T12:50:21.698Z,46.80
2022-11-24T12:55:25.650Z,53.50
2022-11-24T13:01:01.748Z,36.90
2022-11-24T13:06:15.717Z,59.30
2022-11-24T13:11:21.407Z,50.50
2022-11-24T13:16:53.466Z,74.10
2022-11-24T13:21:51.100Z,43.10
2022-11-24T13:27:16.302Z,32.90
2022-11-24T13:32:19.179Z,35.20
2022-11-24T13:37:34.896Z,35.70
2022-11-24T13:48:20.996Z,37.90
2022-11-24T13:53:45.451Z,31.10
2022-11-24T13:58:51.922Z,35.30
2022-11-24T14:04:35.252Z,30.80
2022-11-24T14:09:45.655Z,36.30
2022-11-24T14:14:50.477Z,29.00
2022-11-24T14:19:58.472Z,29.30
2022-11-24T14:25:02.799Z,28.70
2022-11-24T14:30:13.485Z,36.80
2022-11-24T14:35:34.129Z,38.80
2022-11-24T14:40:43.285Z,36.90
2022-11-24T14:46:01.021Z,35.20
2022-11-24T14:51:25.129Z,33.20
2022-11-24T14:56:39.303Z,36.60
2022-11-24T15:01:42.137Z,45.50
2022-11-24T15:06:48.648Z,31.00
2022-11-24T15:11:51.591Z,29.90
2022-11-24T15:16:54.404Z,47.30
2022-11-24T15:21:57.289Z,41.10
2022-11-24T15:27:01.191Z,42.60
2022-11-24T15:32:15.560Z,43.90
2022-11-24T15:37:18.615Z,40.30
2022-11-24T15:42:21.384Z,37.50
2022-11-24T15:47:24.148Z,41.50
2022-11-24T15:52:26.901Z,41.90
2022-11-24T15:57:30.083Z,29.80
2022-11-24T16:02:33.047Z,37.70
2022-11-24T16:07:36.023Z,23.70
2022-11-24T16:12:38.857Z,40.20
2022-11-24T16:17:41.647Z,40.10
2022-11-24T16:22:44.699Z,47.20
2022-11-24T16:27:48.556Z,46.30
2022-11-24T16:32:51.460Z,46.30
2022-11-24T16:37:54.339Z,47.90
2022-11-24T16:42:58.506Z,47.40
2022-11-24T16:48:01.363Z,55.00
2022-11-24T16:53:04.204Z,42.50
2022-11-24T16:58:06.996Z,40.60
2022-11-24T17:03:09.865Z,56.90
2022-11-24T17:08:12.802Z,71.80
2022-11-24T17:13:15.971Z,98.40
2022-11-24T17:18:25.885Z,56.20
2022-11-24T17:23:29.634Z,115.50
2022-11-24T17:28:34.611Z,119.10
2022-11-24T17:33:37.474Z,52.60
2022-11-24T17:38:40.322Z,48.40
2022-11-24T17:43:43.749Z,30.70
2022-11-24T17:48:47.203Z,63.30
2022-11-24T17:53:52.136Z,45.60
2022-11-24T17:58:59.499Z,37.80
2022-11-24T18:04:02.813Z,44.00
2022-11-24T18:09:06.284Z,50.40
2022-11-24T18:14:10.020Z,36.00
2022-11-24T18:19:13.001Z,22.70
2022-11-24T18:24:22.557Z,54.00
2022-11-24T18:29:26.937Z,46.40
2022-11-24T18:34:29.862Z,47.80
2022-11-24T18:39:32.692Z,53.40
2022-11-24T18:44:38.045Z,41.10
2022-11-24T18:49:40.828Z,48.30
2022-11-24T18:54:45.428Z,50.90
2022-11-24T18:59:48.326Z,55.30
2022-11-24T19:04:51.400Z,58.70
2022-11-24T19:09:54.190Z,54.90
2022-11-24T19:14:56.927Z,62.60
2022-11-24T19:19:59.691Z,55.90
2022-11-24T19:25:02.477Z,57.80
2022-11-24T19:30:06.378Z,58.20
2022-11-24T19:35:09.713Z,61.50
2022-11-24T19:40:13.547Z,60.20
2022-11-24T19:45:16.351Z,60.60
2022-11-24T19:50:19.251Z,96.70
2022-11-24T19:55:23.020Z,141.40
2022-11-24T20:00:30.608Z,58.80
2022-11-24T20:05:34.921Z,69.30
2022-11-24T20:10:40.001Z,71.30
2022-11-24T20:15:42.774Z,134.70
2022-11-24T20:20:45.760Z,58.70
2022-11-24T20:25:48.581Z,56.00
2022-11-24T20:30:51.483Z,67.20
2022-11-24T20:35:54.600Z,59.80
2022-11-24T20:41:11.253Z,53.10
2022-11-24T20:46:20.509Z,63.10
2022-11-24T20:51:26.491Z,50.00
2022-11-24T20:56:35.310Z,58.10
2022-11-24T21:01:42.540Z,47.30
2022-11-24T21:06:46.212Z,42.70
2022-11-24T21:11:49.182Z,40.20
2022-11-24T21:16:52.035Z,42.40
2022-11-24T21:21:54.815Z,42.20
2022-11-24T21:26:57.940Z,38.30
2022-11-24T21:32:00.820Z,32.60
2022-11-24T21:37:05.322Z,37.60
2022-11-24T21:42:08.210Z,40.80
2022-11-24T21:47:10.995Z,42.20
2022-11-24T21:52:13.889Z,78.50
2022-11-24T21:57:17.489Z,39.30
2022-11-24T22:02:20.349Z,49.30
2022-11-24T22:07:23.255Z,34.20
2022-11-24T22:12:26.312Z,40.20
2022-11-24T22:17:31.052Z,37.00
2022-11-24T22:22:33.859Z,35.50
2022-11-24T22:27:36.744Z,46.10
2022-11-24T22:32:39.514Z,35.10
2022-11-24T22:37:42.286Z,30.00
2022-11-24T22:42:45.802Z,30.80
2022-11-24T22:47:48.555Z,38.00
2022-11-24T22:52:51.497Z,38.00
2022-11-24T22:57:56.985Z,36.10
2022-11-24T23:03:00.227Z,31.10
2022-11-24T23:08:03.323Z,33.50
2022-11-24T23:13:06.139Z,34.90
2022-11-24T23:18:08.933Z,38.50
2022-11-24T23:23:11.978Z,27.30
2022-11-24T23:28:14.804Z,35.50
2022-11-24T23:33:17.676Z,29.20
2022-11-24T23:38:20.457Z,27.00
2022-11-24T23:43:23.350Z,24.30
2022-11-24T23:48:26.455Z,19.60
2022-11-24T23:53:32.793Z,20.90
2022-11-24T23:58:35.573Z,25.60
